.
WxDataArchive / Data Records for 2006-10-29
2006-10-28 October 2006 2006-10-30

Data Records for Sunday, 29 October 2006

Time	Temp	Chill	HIndex	Humid	Dewpt	 Wind 	HiWind	WindDir	Rain 	Barom 
-----	----	-----	------	-----	-----	------	------	-------	-----	----- 
00:00	44.2	41.4	44.2	50	26.8	5	12	270	0.00	29.645 
00:05	44.2	42.2	44.2	50	26.8	4	12	270	0.00	29.645 
00:10	44.1	44.1	44.1	51	27.1	3	10	248	0.00	29.645 
00:15	43.6	43.6	43.6	53	27.6	3	5	248	0.00	29.645 
00:20	43.3	43.3	43.3	54	27.8	3	10	270	0.00	29.645 
00:25	42.9	42.9	42.9	55	27.9	2	5	270	0.00	29.645 
00:30	42.8	42.8	42.8	56	28.2	3	7	248	0.00	29.644 
00:35	42.8	42.8	42.8	56	28.2	3	7	270	0.00	29.644 
00:40	42.6	42.6	42.6	56	28.0	3	9	248	0.00	29.644 
00:45	42.5	42.5	42.5	58	28.8	2	5	248	0.00	29.646 
00:50	42.3	42.3	42.3	57	28.2	3	10	270	0.00	29.646 
00:55	42.2	42.2	42.2	58	28.5	2	6	270	0.00	29.646 
01:00	42.1	42.1	42.1	58	28.4	2	10	248	0.00	29.646 
01:05	41.9	41.9	41.9	58	28.2	2	9	270	0.00	29.646 
01:10	41.9	41.9	41.9	58	28.2	2	6	270	0.00	29.646 
01:15	41.9	41.9	41.9	58	28.2	2	4	270	0.00	29.653 
01:20	41.9	41.9	41.9	57	27.8	2	6	270	0.00	29.653 
01:25	41.8	41.8	41.8	58	28.1	2	4	270	0.00	29.653 
01:30	41.8	41.8	41.8	58	28.1	2	3	270	0.00	29.646 
01:35	41.6	41.6	41.6	58	27.9	2	4	248	0.00	29.646 
01:40	41.5	41.5	41.5	58	27.8	2	4	248	0.00	29.646 
01:45	41.3	41.3	41.3	58	27.7	2	4	248	0.00	29.655 
01:50	41.3	41.3	41.3	59	28.1	1	3	248	0.00	29.655 
01:55	41.2	41.2	41.2	59	28.0	1	5	270	0.00	29.655 
02:00	39.6	39.6	39.6	63	28.1	1	6	248	0.00	29.665 
02:05	39.5	39.5	39.5	63	28.0	1	5	248	0.00	29.665 
02:10	39.5	39.5	39.5	63	28.0	1	3	248	0.00	29.665 
02:15	39.5	39.5	39.5	64	28.3	2	4	248	0.00	29.675 
02:20	39.5	39.5	39.5	64	28.3	2	5	248	0.00	29.675 
02:25	39.3	39.3	39.3	64	28.2	1	6	248	0.00	29.675 
02:30	39.2	39.2	39.2	65	28.4	1	4	248	0.00	29.676 
02:35	39.1	39.1	39.1	65	28.3	1	6	248	0.00	29.676 
02:40	38.9	38.9	38.9	65	28.2	2	4	248	0.00	29.676 
02:45	38.9	38.9	38.9	65	28.2	2	4	248	0.00	29.676 
02:50	38.9	38.9	38.9	65	28.2	2	5	248	0.00	29.676 
02:55	38.9	38.9	38.9	66	28.5	1	4	248	0.00	29.676 
03:00	38.9	38.9	38.9	66	28.5	2	5	248	0.00	29.679 
03:05	38.8	38.8	38.8	66	28.4	2	4	248	0.00	29.679 
03:10	38.8	38.8	38.8	66	28.4	2	6	248	0.00	29.679 
03:15	38.6	38.6	38.6	67	28.6	2	7	248	0.00	29.683 
03:20	38.6	38.6	38.6	67	28.6	2	5	248	0.00	29.683 
03:25	38.5	38.5	38.5	67	28.5	2	5	248	0.00	29.683 
03:30	38.5	38.5	38.5	68	28.9	2	4	248	0.00	29.687 
03:35	38.3	38.3	38.3	68	28.7	1	4	248	0.00	29.687 
03:40	38.3	38.3	38.3	68	28.7	2	5	248	0.00	29.687 
03:45	38.5	38.5	38.5	68	28.9	3	7	248	0.00	29.687 
03:50	38.3	38.3	38.3	69	29.0	2	6	270	0.00	29.687 
03:55	38.2	38.2	38.2	69	28.9	1	5	248	0.00	29.687 
04:00	38.0	38.0	38.0	69	28.7	1	4	248	0.00	29.691 
04:05	38.0	38.0	38.0	69	28.7	2	9	248	0.00	29.691 
04:10	38.2	38.2	38.2	69	28.9	2	7	248	0.00	29.691 
04:15	38.2	38.2	38.2	69	28.9	2	6	270	0.00	29.695 
04:20	38.2	38.2	38.2	69	28.9	2	7	248	0.00	29.695 
04:25	38.2	38.2	38.2	69	28.9	2	5	248	0.00	29.695 
04:30	38.0	38.0	38.0	69	28.7	1	5	248	0.00	29.705 
04:35	38.0	38.0	38.0	69	28.7	1	3	248	0.00	29.705 
04:40	37.9	37.9	37.9	69	28.7	2	5	248	0.00	29.705 
04:45	37.9	37.9	37.9	69	28.7	2	6	248	0.00	29.711 
04:50	37.9	37.9	37.9	69	28.7	2	4	248	0.00	29.711 
04:55	37.9	37.9	37.9	69	28.7	2	5	248	0.00	29.711 
05:00	37.9	37.9	37.9	69	28.7	2	4	248	0.00	29.719 
05:05	37.8	37.8	37.8	69	28.6	2	7	248	0.00	29.719 
05:10	37.8	37.8	37.8	69	28.6	1	4	248	0.00	29.719 
05:15	37.6	37.6	37.6	70	28.7	1	3	248	0.00	29.727 
05:20	37.6	37.6	37.6	70	28.7	1	4	248	0.00	29.727 
05:25	37.5	37.5	37.5	70	28.6	1	4	248	0.00	29.727 
05:30	37.3	37.3	37.3	70	28.4	1	4	248	0.00	29.739 
05:35	37.2	37.2	37.2	70	28.3	1	3	248	0.00	29.739 
05:40	37.2	37.2	37.2	70	28.3	1	5	248	0.00	29.739 
05:45	37.0	37.0	37.0	71	28.5	2	4	248	0.00	29.744 
05:50	37.0	37.0	37.0	71	28.5	1	3	248	0.00	29.744 
05:55	36.9	36.9	36.9	71	28.4	1	2	248	0.00	29.744 
06:00	36.8	36.8	36.8	72	28.6	1	2	248	0.00	29.749 
06:05	36.8	36.8	36.8	72	28.6	1	3	248	0.00	29.749 
06:10	36.8	36.8	36.8	72	28.6	1	2	248	0.00	29.749 
06:15	36.6	36.6	36.6	72	28.4	1	3	248	0.00	29.754 
06:20	36.5	36.5	36.5	73	28.7	1	3	248	0.00	29.754 
06:25	36.5	36.5	36.5	73	28.7	1	4	248	0.00	29.754 
06:30	36.5	36.5	36.5	73	28.7	1	3	248	0.00	29.758 
06:35	36.3	36.3	36.3	73	28.5	1	3	248	0.00	29.758 
06:40	36.2	36.2	36.2	73	28.4	0	2	248	0.00	29.758 
06:45	36.2	36.2	36.2	73	28.4	1	2	248	0.00	29.763 
06:50	36.2	36.2	36.2	73	28.4	1	4	270	0.00	29.763 
06:55	36.0	36.0	36.0	73	28.2	1	3	248	0.00	29.763 
07:00	36.0	36.0	36.0	74	28.5	1	3	248	0.00	29.769 
07:05	35.9	35.9	35.9	74	28.4	1	4	248	0.00	29.769 
07:10	35.9	35.9	35.9	74	28.4	1	4	248	0.00	29.769 
07:15	35.9	35.9	35.9	74	28.4	1	2	248	0.00	29.775 
07:20	35.8	35.8	35.8	74	28.3	1	5	248	0.00	29.775 
07:25	35.8	35.8	35.8	74	28.3	1	2	270	0.00	29.775 
07:30	35.9	35.9	35.9	74	28.4	1	4	248	0.00	29.781 
07:35	36.0	36.0	36.0	74	28.5	1	2	248	0.00	29.781 
07:40	36.2	36.2	36.2	73	28.4	1	6	248	0.00	29.781 
07:45	36.3	36.3	36.3	73	28.5	1	3	248	0.00	29.792 
07:50	36.5	36.5	36.5	73	28.7	2	6	248	0.00	29.792 
07:55	36.6	36.6	36.6	72	28.4	1	6	248	0.00	29.792 
08:00	36.9	36.9	36.9	72	28.7	1	4	248	0.00	29.803 
08:05	37.0	37.0	37.0	72	28.8	2	5	248	0.00	29.803 
08:10	37.3	37.3	37.3	72	29.1	1	3	248	0.00	29.803 
08:15	37.6	37.6	37.6	70	28.7	2	4	248	0.00	29.813 
08:20	38.0	38.0	38.0	70	29.1	2	4	248	0.00	29.813 
08:25	38.3	38.3	38.3	69	29.0	2	4	248	0.00	29.813 
08:30	38.8	38.8	38.8	68	29.2	2	5	248	0.00	29.820 
08:35	39.2	39.2	39.2	67	29.2	2	5	270	0.00	29.820 
08:40	39.6	39.6	39.6	67	29.6	2	6	248	0.00	29.820 
08:45	40.1	40.1	40.1	66	29.7	2	5	248	0.00	29.824 
08:50	40.6	40.6	40.6	65	29.8	2	4	270	0.00	29.824 
08:55	41.2	41.2	41.2	63	29.6	2	5	270	0.00	29.824 
09:00	41.6	41.6	41.6	63	30.0	1	3	270	0.00	29.827 
09:05	42.2	42.2	42.2	62	30.1	2	7	270	0.00	29.827 
09:10	42.6	42.6	42.6	61	30.1	2	5	248	0.00	29.827 
09:15	43.2	43.2	43.2	59	29.9	2	5	248	0.00	29.832 
09:20	43.6	43.6	43.6	59	30.2	2	5	248	0.00	29.832 
09:25	43.9	43.9	43.9	55	28.8	2	6	270	0.00	29.832 
09:30	44.1	44.1	44.1	55	29.0	3	7	270	0.00	29.835 
09:35	44.3	44.3	44.3	54	28.7	3	6	248	0.00	29.835 
09:40	44.5	44.5	44.5	55	29.3	2	6	270	0.00	29.835 
09:45	44.8	44.8	44.8	53	28.7	3	6	270	0.00	29.836 
09:50	45.1	45.1	45.1	55	29.9	2	5	248	0.00	29.836 
09:55	45.2	45.2	45.2	52	28.6	3	8	270	0.00	29.836 
10:00	45.4	45.4	45.4	50	27.9	3	6	270	0.00	29.841 
10:05	45.7	45.7	45.7	51	28.6	2	4	248	0.00	29.841 
10:10	46.0	46.0	46.0	49	27.9	2	3	292	0.00	29.841 
10:15	46.0	46.0	46.0	48	27.4	3	7	270	0.00	29.845 
10:20	46.0	46.0	46.0	48	27.4	3	5	270	0.00	29.845 
10:25	46.1	46.1	46.1	47	27.0	2	4	315	0.00	29.845 
10:30	46.4	46.4	46.4	47	27.3	2	5	292	0.00	29.849 
10:35	46.7	46.7	46.7	48	28.1	2	4	292	0.00	29.849 
10:40	47.1	45.5	47.1	47	27.9	4	10	270	0.00	29.849 
10:45	47.1	47.1	47.1	45	26.9	3	9	270	0.00	29.852 
10:50	47.0	47.0	47.0	42	25.1	3	7	315	0.00	29.852 
10:55	47.1	47.1	47.1	43	25.8	3	6	270	0.00	29.852 
11:00	47.4	47.4	47.4	44	26.6	3	6	315	0.00	29.859 
11:05	47.6	46.1	47.6	43	26.2	4	9	270	0.00	29.859 
11:10	47.7	47.7	47.7	44	26.9	3	7	270	0.00	29.859 
11:15	48.2	48.2	48.2	43	26.8	3	5	270	0.00	29.864 
11:20	48.3	46.9	48.3	40	25.1	4	7	270	0.00	29.864 
11:25	48.5	47.1	48.5	39	24.7	4	11	270	0.00	29.864 
11:30	48.9	48.9	48.9	40	25.7	2	6	248	0.00	29.867 
11:35	49.4	49.4	49.4	42	27.3	3	8	270	0.00	29.867 
11:40	49.1	49.1	49.1	34	22.0	3	8	292	0.00	29.867 
11:45	48.9	47.6	48.9	38	24.4	4	10	270	0.00	29.868 
11:50	49.2	49.2	49.2	39	25.3	3	10	270	0.00	29.868 
11:55	49.2	47.9	49.2	38	24.7	4	10	270	0.00	29.868 
12:00	49.2	49.2	49.2	38	24.7	3	6	270	0.00	29.865 
12:05	49.5	48.3	49.5	36	23.7	4	17	248	0.00	29.865 
12:10	49.6	49.6	49.6	37	24.4	3	6	270	0.00	29.865 
12:15	49.8	48.6	49.8	35	23.3	4	9	270	0.00	29.872 
12:20	49.5	47.1	49.5	34	22.3	6	13	270	0.00	29.872 
12:25	49.9	48.8	49.9	35	23.3	4	11	270	0.00	29.872 
12:30	49.9	49.9	49.9	35	23.3	3	7	270	0.00	29.873 
12:35	50.1	50.1	50.1	33	22.1	5	13	270	0.00	29.873 
12:40	49.9	48.8	49.9	36	24.0	4	11	292	0.00	29.873 
12:45	50.2	50.2	50.2	32	21.5	5	17	270	0.00	29.868 
12:50	50.5	50.5	50.5	32	21.8	3	7	292	0.00	29.868 
12:55	50.7	50.7	50.7	33	22.7	3	6	270	0.00	29.868 
13:00	50.8	50.8	50.8	35	24.1	2	6	248	0.00	29.862 
13:05	51.3	51.3	51.3	33	23.2	3	7	270	0.00	29.862 
13:10	51.4	51.4	51.4	31	21.8	3	6	270	0.00	29.862 
13:15	51.3	51.3	51.3	29	20.1	4	10	270	0.00	29.867 
13:20	51.4	51.4	51.4	30	21.0	4	10	270	0.00	29.867 
13:25	51.6	51.6	51.6	31	22.0	3	11	270	0.00	29.867 
13:30	51.6	51.6	51.6	31	22.0	3	10	270	0.00	29.869 
13:35	51.6	51.6	51.6	31	22.0	3	7	270	0.00	29.869 
13:40	51.7	51.7	51.7	31	22.1	3	10	270	0.00	29.869 
13:45	52.3	52.3	52.3	32	23.3	2	5	270	0.00	29.873 
13:50	52.5	52.5	52.5	31	22.8	4	11	270	0.00	29.873 
13:55	52.2	52.2	52.2	28	20.1	4	10	270	0.00	29.873 
14:00	52.3	52.3	52.3	29	21.0	3	6	270	0.00	29.878 
14:05	52.6	52.6	52.6	30	22.1	2	6	248	0.00	29.878 
14:10	52.6	52.6	52.6	28	20.4	4	7	270	0.00	29.878 
14:15	52.5	52.5	52.5	30	22.0	3	7	270	0.00	29.874 
14:20	52.6	52.6	52.6	29	21.3	3	7	248	0.00	29.874 
14:25	52.6	52.6	52.6	28	20.4	3	7	270	0.00	29.874 
14:30	52.5	52.5	52.5	30	22.0	4	10	270	0.00	29.873 
14:35	52.3	52.3	52.3	29	21.0	4	10	270	0.00	29.873 
14:40	52.6	52.6	52.6	28	20.4	3	5	270	0.00	29.873 
14:45	52.5	52.5	52.5	28	20.4	2	7	292	0.00	29.873 
14:50	52.8	52.8	52.8	32	23.8	2	5	292	0.00	29.873 
14:55	52.9	52.9	52.9	27	19.8	3	5	270	0.00	29.873 
15:00	52.9	52.9	52.9	27	19.8	3	9	315	0.00	29.877 
15:05	52.8	52.8	52.8	28	20.6	2	4	292	0.00	29.877 
15:10	53.1	53.1	53.1	29	21.7	3	7	292	0.00	29.877 
15:15	53.3	53.3	53.3	29	21.9	3	9	248	0.00	29.885 
15:20	53.5	53.5	53.5	27	20.4	3	7	248	0.00	29.885 
15:25	53.3	53.3	53.3	27	20.2	3	9	248	0.00	29.885 
15:30	53.2	53.2	53.2	28	21.0	3	7	270	0.00	29.884 
15:35	53.2	53.2	53.2	28	21.0	3	9	270	0.00	29.884 
15:40	53.1	53.1	53.1	28	20.9	3	6	270	0.00	29.884 
15:45	53.1	53.1	53.1	27	20.0	2	10	248	0.00	29.888 
15:50	52.9	52.9	52.9	27	19.8	2	5	315	0.00	29.888 
15:55	52.6	52.6	52.6	26	18.7	3	7	270	0.00	29.888 
16:00	52.5	52.5	52.5	25	17.7	2	6	270	0.00	29.894 
16:05	52.3	52.3	52.3	27	19.3	2	4	292	0.00	29.894 
16:10	52.6	52.6	52.6	27	19.6	3	9	270	0.00	29.894 
16:15	52.6	52.6	52.6	26	18.7	2	6	248	0.00	29.897 
16:20	52.3	52.3	52.3	27	19.3	2	5	270	0.00	29.897 
16:25	52.5	52.5	52.5	27	19.5	2	4	248	0.00	29.897 
16:30	52.5	52.5	52.5	26	18.6	2	7	248	0.00	29.896 
16:35	52.3	52.3	52.3	27	19.3	3	5	270	0.00	29.896 
16:40	52.3	52.3	52.3	26	18.4	3	9	248	0.00	29.896 
16:45	52.3	52.3	52.3	27	19.3	2	5	270	0.00	29.900 
16:50	52.2	52.2	52.2	27	19.2	2	6	248	0.00	29.900 
16:55	52.0	52.0	52.0	27	19.1	1	5	270	0.00	29.900 
17:00	51.9	51.9	51.9	27	19.0	1	3	248	0.00	29.906 
17:05	51.6	51.6	51.6	28	19.6	1	3	248	0.00	29.906 
17:10	51.4	51.4	51.4	29	20.2	1	4	248	0.00	29.906 
17:15	51.1	51.1	51.1	28	19.1	1	5	248	0.00	29.914 
17:20	51.0	51.0	51.0	30	20.7	0	2	248	0.00	29.914 
17:25	50.5	50.5	50.5	30	20.2	0	1	248	0.00	29.914 
17:30	50.1	50.1	50.1	31	20.7	0	1	248	0.00	29.917 
17:35	49.8	49.8	49.8	32	21.1	0	1	248	0.00	29.917 
17:40	49.5	49.5	49.5	32	20.9	0	1	248	0.00	29.917 
17:45	49.2	49.2	49.2	32	20.6	0	1	248	0.00	29.919 
17:50	48.8	48.8	48.8	34	21.7	0	0	---	0.00	29.919 
17:55	48.0	48.0	48.0	35	21.7	0	0	---	0.00	29.919 
18:00	47.4	47.4	47.4	36	21.8	0	0	---	0.00	29.925 
18:05	46.8	46.8	46.8	37	21.9	0	0	---	0.00	29.925 
18:10	46.2	46.2	46.2	41	23.8	0	0	---	0.00	29.925 
18:15	45.5	45.5	45.5	40	22.6	0	0	---	0.00	29.932 
18:20	44.6	44.6	44.6	42	22.9	0	0	---	0.00	29.932 
18:25	44.1	44.1	44.1	44	23.6	0	0	---	0.00	29.932 
18:30	43.5	43.5	43.5	44	23.1	0	0	---	0.00	29.937 
18:35	43.2	43.2	43.2	47	24.3	0	0	---	0.00	29.937 
18:40	42.8	42.8	42.8	50	25.5	0	0	---	0.00	29.937 
18:45	42.2	42.2	42.2	49	24.4	0	0	---	0.00	29.940 
18:50	41.8	41.8	41.8	51	25.0	0	0	---	0.00	29.940 
18:55	41.5	41.5	41.5	51	24.7	0	0	---	0.00	29.940 
19:00	41.1	41.1	41.1	54	25.7	0	0	---	0.00	29.941 
19:05	40.6	40.6	40.6	54	25.3	0	0	---	0.00	29.941 
19:10	40.3	40.3	40.3	55	25.4	0	0	---	0.00	29.941 
19:15	39.9	39.9	39.9	58	26.3	0	0	---	0.00	29.940 
19:20	39.5	39.5	39.5	58	26.0	0	0	---	0.00	29.940 
19:25	39.2	39.2	39.2	59	26.1	0	0	---	0.00	29.940 
19:30	38.9	38.9	38.9	60	26.2	0	0	---	0.00	29.941 
19:35	38.6	38.6	38.6	61	26.3	0	0	---	0.00	29.941 
19:40	38.5	38.5	38.5	63	27.0	0	0	---	0.00	29.941 
19:45	38.2	38.2	38.2	62	26.3	0	0	---	0.00	29.942 
19:50	37.9	37.9	37.9	63	26.4	0	0	---	0.00	29.942 
19:55	37.8	37.8	37.8	63	26.4	0	0	---	0.00	29.942 
20:00	37.6	37.6	37.6	63	26.2	0	0	---	0.00	29.941 
20:05	37.5	37.5	37.5	64	26.4	0	0	---	0.00	29.941 
20:10	37.6	37.6	37.6	64	26.5	0	0	---	0.00	29.941 
20:15	37.6	37.6	37.6	63	26.2	0	0	---	0.00	29.941 
20:20	37.6	37.6	37.6	65	26.9	0	0	---	0.00	29.941 
20:25	37.5	37.5	37.5	66	27.2	0	0	---	0.00	29.941 
20:30	37.3	37.3	37.3	66	27.0	0	0	---	0.00	29.946 
20:35	37.2	37.2	37.2	66	26.9	0	0	---	0.00	29.946 
20:40	37.0	37.0	37.0	65	26.3	0	0	---	0.00	29.946 
20:45	37.0	37.0	37.0	66	26.7	0	0	---	0.00	29.946 
20:50	36.9	36.9	36.9	65	26.3	0	0	---	0.00	29.946 
20:55	37.0	37.0	37.0	65	26.3	0	0	---	0.00	29.946 
21:00	37.2	37.2	37.2	63	25.8	0	0	---	0.00	29.941 
21:05	37.5	37.5	37.5	64	26.4	0	0	---	0.00	29.941 
21:10	37.8	37.8	37.8	62	26.0	0	0	---	0.00	29.941 
21:15	37.9	37.9	37.9	62	26.1	0	0	---	0.00	29.937 
21:20	38.3	38.3	38.3	61	26.0	0	0	---	0.00	29.937 
21:25	38.5	38.5	38.5	60	25.8	0	0	---	0.00	29.937 
21:30	38.6	38.6	38.6	60	25.9	0	0	---	0.00	29.933 
21:35	38.6	38.6	38.6	59	25.5	0	0	---	0.00	29.933 
21:40	38.6	38.6	38.6	60	25.9	0	0	---	0.00	29.933 
21:45	38.6	38.6	38.6	60	25.9	0	1	248	0.00	29.934 
21:50	38.5	38.5	38.5	61	26.2	0	0	---	0.00	29.934 
21:55	38.3	38.3	38.3	61	26.0	0	0	---	0.00	29.934 
22:00	38.2	38.2	38.2	62	26.3	0	0	---	0.00	29.936 
22:05	38.2	38.2	38.2	62	26.3	0	0	---	0.00	29.936 
22:10	38.2	38.2	38.2	62	26.3	0	0	---	0.00	29.936 
22:15	38.0	38.0	38.0	63	26.5	0	0	---	0.00	29.938 
22:20	37.9	37.9	37.9	63	26.4	0	0	---	0.00	29.938 
22:25	37.6	37.6	37.6	64	26.5	0	0	---	0.00	29.938 
22:30	37.3	37.3	37.3	64	26.3	0	0	---	0.00	29.934 
22:35	37.0	37.0	37.0	65	26.3	0	0	---	0.00	29.934 
22:40	36.8	36.8	36.8	68	27.2	0	0	---	0.00	29.934 
22:45	36.6	36.6	36.6	67	26.7	0	0	---	0.00	29.930 
22:50	36.3	36.3	36.3	66	26.0	0	0	---	0.00	29.930 
22:55	36.3	36.3	36.3	66	26.0	0	0	---	0.00	29.930 

CoCoRaHS
IN-AL-39
A2 Web Hosting
Creative Commons License
GoDaddy
Look for:

loaded 2017-12-10 21:10:26 • last modified 2010-11-18 10:43:29
Privacy PolicyDisclaimer
• wx.awcolley.com is powered by PmWiki v.2002016 •
• all content (unless otherwise noted) © 2017 A W Colley